Accueil
METAR-TAF:

METAR-TAF

Aéroports :

Aérodrome d'Oban

Oban, Écosse

latitude: 56-27-49N, longitude: 5-24-00W, altitude: 7 m

Observation

Le bulletin a été fait il y a 25 minutes, à 15:20 UTC
Vent 9 kt de ouest
Température 11°C
Humidité 54%
Pression 1018 hPa
Visibilité 10 km ou plus
Quelques nuages à une hauteur de 4500 ft

METAR: EGEO 171520Z 27009KT 9999 FEW045 11/02 Q1018

Heure: 16:45 (15:45 UTC)

Prévision

Le bulletin a été fait il y a 1 heure et 43 minutes, à 14:02 UTC
Prévision valable du 17 à 15 UTC au 17 à 17 UTC
Vent 7 kt de ouest/nord-ouest
Visibilité 10 km ou plus
Quelques nuages à une hauteur de 3500 ft

TAF: EGEO 171402Z 1715/1717 30007KT 9999 FEW035

Observations et prévisions météorologiques de plus de 4000 aéroports (messages METAR et TAF).

Les stations disponibles sont représentées par des disques jaunes et rouges sur la carte.

Passer la souris dessus pour voir le nom de la station.

Cliquer dessus pour voir les observations et prévisions météorologiques.

Pour changer de carte: cliquez sur les boutons verts avec une croix noire pour zoomer, sur le bouton vert avec un tiret pour effectuer un zoom arrière, ou sur les flèches vertes pour les cartes adjacentes.


METAR-TAF: